createdAt,value
2017-07-21T00:00:14.112Z,3.60
2017-07-21T00:02:42.155Z,3.87
2017-07-21T00:05:10.226Z,3.90
2017-07-21T00:07:38.278Z,3.83
2017-07-21T00:10:06.374Z,3.50
2017-07-21T00:12:34.427Z,3.83
2017-07-21T00:15:02.490Z,3.93
2017-07-21T00:17:30.606Z,3.80
2017-07-21T00:19:58.655Z,3.93
2017-07-21T00:25:01.180Z,3.50
2017-07-21T00:27:29.238Z,4.10
2017-07-21T00:29:57.320Z,4.10
2017-07-21T00:32:25.385Z,3.57
2017-07-21T00:34:53.471Z,3.40
2017-07-21T00:37:21.526Z,3.97
2017-07-21T00:39:49.586Z,3.57
2017-07-21T00:42:17.670Z,3.40
2017-07-21T00:44:45.739Z,3.60
2017-07-21T00:47:14.635Z,3.50
2017-07-21T00:49:43.491Z,3.93
2017-07-21T00:52:11.544Z,3.60
2017-07-21T00:54:39.602Z,3.53
2017-07-21T00:57:07.677Z,4.10
2017-07-21T00:59:35.741Z,3.70
2017-07-21T01:02:03.803Z,3.87
2017-07-21T01:04:31.896Z,4.03
2017-07-21T01:06:59.944Z,4.60
2017-07-21T01:09:27.994Z,3.97
2017-07-21T01:11:56.863Z,4.10
2017-07-21T01:14:24.923Z,3.57
2017-07-21T01:16:53.044Z,4.73
2017-07-21T01:19:21.115Z,4.23
2017-07-21T01:21:49.199Z,4.03
2017-07-21T01:24:17.266Z,4.30
2017-07-21T01:26:45.340Z,4.57
2017-07-21T01:29:13.403Z,4.00
2017-07-21T01:31:41.471Z,3.80
2017-07-21T01:34:09.554Z,4.17
2017-07-21T01:36:37.624Z,4.80
2017-07-21T01:39:05.685Z,3.77
2017-07-21T01:41:33.758Z,4.20
2017-07-21T01:44:01.835Z,3.50
2017-07-21T01:46:29.899Z,3.83
2017-07-21T01:48:57.978Z,3.93
2017-07-21T01:51:26.037Z,3.50
2017-07-21T01:53:54.135Z,3.60
2017-07-21T01:56:22.200Z,3.23
2017-07-21T01:58:50.249Z,4.20
2017-07-21T02:01:18.323Z,3.90
2017-07-21T02:03:46.396Z,3.77
2017-07-21T02:06:14.474Z,3.20
2017-07-21T02:08:42.539Z,3.53
2017-07-21T02:11:10.614Z,3.80
2017-07-21T02:13:38.678Z,3.47
2017-07-21T02:16:06.751Z,3.57
2017-07-21T02:18:34.807Z,3.60
2017-07-21T02:21:02.859Z,3.40
2017-07-21T02:23:31.705Z,3.17
2017-07-21T02:25:59.770Z,4.20
2017-07-21T02:28:27.864Z,3.87
2017-07-21T02:30:55.931Z,3.90
2017-07-21T02:33:24.002Z,3.77
2017-07-21T02:35:52.045Z,3.23
2017-07-21T02:38:20.272Z,3.47
2017-07-21T02:40:49.219Z,3.50
2017-07-21T02:43:17.279Z,4.63
2017-07-21T02:45:45.326Z,3.97
2017-07-21T02:48:13.412Z,4.43
2017-07-21T02:50:41.462Z,4.20
2017-07-21T02:53:09.563Z,3.90
2017-07-21T02:55:37.613Z,3.77
2017-07-21T02:58:05.654Z,3.67
2017-07-21T03:00:33.792Z,3.47
2017-07-21T03:03:01.836Z,3.87
2017-07-21T03:05:29.926Z,3.47
2017-07-21T03:07:57.990Z,3.30
2017-07-21T03:10:26.059Z,3.57
2017-07-21T03:12:54.126Z,4.20
2017-07-21T03:15:22.174Z,3.70
2017-07-21T03:17:50.254Z,3.43
2017-07-21T03:20:18.311Z,3.60
2017-07-21T03:23:23.975Z,3.27
2017-07-21T03:25:52.023Z,3.47
2017-07-21T03:28:20.266Z,3.70
2017-07-21T03:30:49.192Z,3.17
2017-07-21T03:33:17.265Z,3.20
2017-07-21T03:35:45.339Z,3.50
2017-07-21T03:38:13.411Z,3.00
2017-07-21T03:40:41.482Z,3.77
2017-07-21T03:43:09.550Z,4.03
2017-07-21T03:45:37.627Z,3.70
2017-07-21T03:48:05.683Z,3.90
2017-07-21T03:50:33.851Z,3.90
2017-07-21T03:53:02.679Z,4.40
2017-07-21T03:55:30.743Z,3.70
2017-07-21T03:57:58.803Z,3.83
2017-07-21T04:00:26.870Z,3.07
2017-07-21T04:02:55.657Z,4.10
2017-07-21T04:05:23.731Z,3.07
2017-07-21T04:07:51.787Z,3.73
2017-07-21T04:10:19.862Z,3.20
2017-07-21T04:12:47.923Z,3.73
2017-07-21T04:15:16.003Z,3.70
2017-07-21T04:17:44.074Z,4.23
2017-07-21T04:20:12.138Z,3.63
2017-07-21T04:22:40.208Z,3.10
2017-07-21T04:25:08.267Z,4.23
2017-07-21T04:27:36.358Z,3.47
2017-07-21T04:30:04.421Z,3.37
2017-07-21T04:32:32.470Z,3.63
2017-07-21T04:35:00.532Z,3.50
2017-07-21T04:37:29.360Z,3.40
2017-07-21T04:39:57.432Z,4.27
2017-07-21T04:42:25.490Z,3.63
2017-07-21T04:44:53.559Z,3.50
2017-07-21T04:47:21.626Z,3.13
2017-07-21T04:49:49.679Z,3.70
2017-07-21T04:52:17.757Z,2.90
2017-07-21T04:54:45.830Z,3.30
2017-07-21T04:57:13.932Z,2.80
2017-07-21T04:59:41.970Z,3.63
2017-07-21T05:02:10.020Z,2.87
2017-07-21T05:04:38.851Z,2.90
2017-07-21T05:07:06.912Z,3.47
2017-07-21T05:09:34.969Z,3.40
2017-07-21T05:12:03.031Z,3.03
2017-07-21T05:14:31.111Z,2.77
2017-07-21T05:16:59.174Z,3.03
2017-07-21T05:19:27.219Z,3.90
2017-07-21T05:21:56.053Z,3.33
2017-07-21T05:24:24.110Z,3.13
2017-07-21T05:26:52.163Z,4.17
2017-07-21T05:29:20.233Z,3.33
2017-07-21T05:31:48.300Z,4.20
2017-07-21T05:34:17.116Z,3.53
2017-07-21T05:36:45.219Z,2.93
2017-07-21T05:39:13.272Z,3.20
2017-07-21T05:41:41.326Z,3.37
2017-07-21T05:44:09.399Z,2.80
2017-07-21T05:46:37.450Z,3.63
2017-07-21T05:49:06.278Z,3.77
2017-07-21T05:51:34.359Z,3.97
2017-07-21T05:54:02.454Z,3.20
2017-07-21T05:56:30.498Z,3.07
2017-07-21T05:58:58.560Z,3.00
2017-07-21T06:01:26.635Z,2.90
2017-07-21T06:03:54.698Z,3.67
2017-07-21T06:06:22.741Z,2.90
2017-07-21T06:08:52.506Z,3.80
2017-07-21T06:11:20.575Z,4.10
2017-07-21T06:13:48.683Z,3.60
2017-07-21T06:16:16.726Z,3.53
2017-07-21T06:18:44.778Z,3.57
2017-07-21T06:21:12.834Z,3.90
2017-07-21T06:23:40.982Z,3.30
2017-07-21T06:26:09.834Z,3.90
2017-07-21T06:28:37.919Z,3.40
2017-07-21T06:31:06.012Z,3.70
2017-07-21T06:33:34.061Z,3.20
2017-07-21T06:36:02.182Z,3.57
2017-07-21T06:38:30.986Z,3.00
2017-07-21T06:40:59.062Z,2.73
2017-07-21T06:43:27.158Z,3.30
2017-07-21T06:45:55.223Z,3.10
2017-07-21T06:48:23.443Z,2.60
2017-07-21T06:50:52.347Z,2.97
2017-07-21T06:53:21.168Z,3.10
2017-07-21T06:55:49.245Z,2.57
2017-07-21T06:58:17.290Z,3.00
2017-07-21T07:00:45.372Z,2.90
2017-07-21T07:03:13.415Z,2.87
2017-07-21T07:05:41.488Z,3.50
2017-07-21T07:08:09.563Z,3.10
2017-07-21T07:10:37.610Z,2.60
2017-07-21T07:13:06.467Z,2.87
2017-07-21T07:15:34.528Z,2.80
2017-07-21T07:18:02.583Z,3.67
2017-07-21T07:20:30.675Z,3.00
2017-07-21T07:22:58.724Z,2.50
2017-07-21T07:25:26.802Z,3.23
2017-07-21T07:27:54.860Z,2.80
2017-07-21T07:30:22.929Z,2.37
2017-07-21T07:32:50.984Z,2.30
2017-07-21T07:35:19.054Z,2.30
2017-07-21T07:37:47.132Z,2.33
2017-07-21T07:40:15.223Z,2.20
2017-07-21T07:42:43.314Z,2.40
2017-07-21T07:45:11.360Z,2.17
2017-07-21T07:47:39.463Z,2.83
2017-07-21T07:50:07.539Z,2.10
2017-07-21T07:52:35.665Z,2.30
2017-07-21T07:55:03.715Z,2.23
2017-07-21T07:57:32.559Z,2.30
2017-07-21T08:00:01.131Z,2.30
2017-07-21T08:02:29.824Z,2.50
2017-07-21T08:04:57.891Z,2.70
2017-07-21T08:07:25.956Z,2.80
2017-07-21T08:09:54.011Z,2.10
2017-07-21T08:12:22.079Z,2.53
2017-07-21T08:14:50.148Z,2.73
2017-07-21T08:17:19.254Z,2.70
2017-07-21T08:19:47.540Z,2.40
2017-07-21T08:22:15.590Z,2.00
2017-07-21T08:24:43.675Z,1.80
2017-07-21T08:27:11.716Z,1.50
2017-07-21T08:29:39.803Z,2.70
2017-07-21T08:32:07.857Z,2.03
2017-07-21T08:34:35.962Z,1.87
2017-07-21T08:37:04.027Z,1.80
2017-07-21T08:39:32.097Z,1.70
2017-07-21T08:42:00.200Z,2.13
2017-07-21T08:44:28.271Z,1.90
2017-07-21T08:46:56.395Z,2.27
2017-07-21T08:49:24.497Z,1.70
2017-07-21T08:51:52.563Z,2.00
2017-07-21T08:54:20.621Z,2.00
2017-07-21T08:56:48.690Z,2.00
2017-07-21T08:59:16.771Z,2.10
2017-07-21T09:01:44.835Z,1.73
2017-07-21T09:04:12.901Z,2.90
2017-07-21T09:06:40.965Z,1.80
2017-07-21T09:09:09.031Z,2.33
2017-07-21T09:11:37.120Z,2.10
2017-07-21T09:14:05.199Z,1.80
2017-07-21T09:16:33.259Z,2.10
2017-07-21T09:19:01.339Z,2.13
2017-07-21T09:21:29.413Z,2.67
2017-07-21T09:23:57.487Z,1.90
2017-07-21T09:26:25.561Z,1.80
2017-07-21T09:28:53.634Z,1.73
2017-07-21T09:31:21.702Z,1.80
2017-07-21T09:33:49.790Z,2.30
2017-07-21T09:36:17.988Z,2.30
2017-07-21T09:38:46.203Z,2.00
2017-07-21T09:41:14.418Z,1.80
2017-07-21T09:43:42.626Z,2.00
2017-07-21T09:46:10.697Z,1.60
2017-07-21T09:48:38.857Z,2.03
2017-07-21T09:51:07.009Z,2.03
2017-07-21T09:53:35.118Z,2.60
2017-07-21T09:56:03.166Z,1.93
2017-07-21T09:58:32.018Z,2.13
2017-07-21T10:01:00.105Z,2.30
2017-07-21T10:03:28.190Z,2.27
2017-07-21T10:05:57.144Z,2.67
2017-07-21T10:08:25.204Z,2.10
2017-07-21T10:10:53.258Z,2.23
2017-07-21T10:13:21.338Z,2.10
2017-07-21T10:15:49.419Z,2.00
2017-07-21T10:18:17.469Z,2.30
2017-07-21T10:20:45.542Z,2.70
2017-07-21T10:23:13.592Z,2.20
2017-07-21T10:25:42.432Z,3.00
2017-07-21T10:28:10.492Z,2.10
2017-07-21T10:30:38.556Z,1.80
2017-07-21T10:33:06.614Z,2.10
2017-07-21T10:35:34.684Z,2.13
2017-07-21T10:38:02.753Z,2.10
2017-07-21T10:40:30.832Z,1.90
2017-07-21T10:42:58.862Z,2.57
2017-07-21T10:45:27.695Z,2.53
2017-07-21T10:47:55.784Z,2.80
2017-07-21T10:50:23.858Z,2.33
2017-07-21T10:52:51.910Z,2.17
2017-07-21T10:55:19.999Z,1.70
2017-07-21T10:57:48.068Z,2.47
2017-07-21T11:00:16.135Z,2.80
2017-07-21T11:02:44.183Z,2.30
2017-07-21T11:05:12.302Z,2.10
2017-07-21T11:07:40.355Z,2.57
2017-07-21T11:10:08.410Z,2.33
2017-07-21T11:12:36.491Z,2.40
2017-07-21T11:15:04.556Z,2.60
2017-07-21T11:17:32.612Z,2.47
2017-07-21T11:20:00.668Z,2.50
2017-07-21T11:22:28.750Z,2.33
2017-07-21T11:24:56.896Z,2.27
2017-07-21T11:27:24.923Z,2.20
2017-07-21T11:29:53.013Z,2.07
2017-07-21T11:32:21.843Z,2.50
2017-07-21T11:34:49.924Z,2.20
2017-07-21T11:37:17.996Z,2.10
2017-07-21T11:39:46.047Z,2.33
2017-07-21T11:42:14.094Z,2.63
2017-07-21T11:44:42.184Z,2.40
2017-07-21T11:47:10.234Z,2.37
2017-07-21T11:49:39.076Z,2.30
2017-07-21T11:52:07.131Z,2.33
2017-07-21T11:54:35.218Z,2.40
2017-07-21T11:57:03.285Z,2.37
2017-07-21T11:59:31.343Z,1.87
2017-07-21T12:01:59.425Z,2.10
2017-07-21T12:04:27.494Z,2.43
2017-07-21T12:06:55.543Z,2.60
2017-07-21T12:09:23.630Z,1.70
2017-07-21T12:11:51.680Z,2.20
2017-07-21T12:14:20.495Z,2.47
2017-07-21T12:16:48.579Z,2.57
2017-07-21T12:19:16.639Z,2.70
2017-07-21T12:21:44.715Z,1.97
2017-07-21T12:24:12.770Z,1.80
2017-07-21T12:26:40.819Z,1.80
2017-07-21T12:29:09.656Z,1.50
2017-07-21T12:31:38.196Z,2.00
2017-07-21T12:34:06.267Z,1.93
2017-07-21T12:36:35.102Z,2.30
2017-07-21T12:39:03.171Z,2.27
2017-07-21T12:41:31.219Z,2.13
2017-07-21T12:43:59.261Z,2.23
2017-07-21T12:46:28.111Z,2.00
2017-07-21T12:48:57.022Z,1.87
2017-07-21T12:51:25.091Z,2.30
2017-07-21T12:53:53.138Z,2.40
2017-07-21T12:56:21.208Z,2.23
2017-07-21T12:58:49.282Z,2.33
2017-07-21T13:01:18.106Z,2.33
2017-07-21T13:03:46.174Z,2.20
2017-07-21T13:06:14.249Z,2.10
2017-07-21T13:08:42.338Z,2.50
2017-07-21T13:11:10.402Z,2.10
2017-07-21T13:13:39.022Z,1.90
2017-07-21T13:16:07.048Z,2.23
2017-07-21T13:18:35.109Z,2.03
2017-07-21T13:21:03.956Z,2.10
2017-07-21T13:23:32.083Z,2.70
2017-07-21T13:26:00.200Z,1.80
2017-07-21T13:28:28.271Z,2.00
2017-07-21T13:30:56.327Z,2.53
2017-07-21T13:33:24.399Z,2.30
2017-07-21T13:35:52.460Z,2.03
2017-07-21T13:38:20.536Z,2.20
2017-07-21T13:40:48.604Z,2.30
2017-07-21T13:43:16.679Z,2.20
2017-07-21T13:45:44.745Z,2.30
2017-07-21T13:48:12.808Z,4.70
2017-07-21T13:50:40.883Z,3.10
2017-07-21T13:53:08.941Z,1.80
2017-07-21T13:55:37.002Z,1.90
2017-07-21T13:58:05.058Z,2.30
2017-07-21T14:00:33.138Z,1.90
2017-07-21T14:03:01.216Z,1.93
2017-07-21T14:05:29.317Z,3.90
2017-07-21T14:07:57.411Z,2.27
2017-07-21T14:10:25.479Z,1.97
2017-07-21T14:12:54.323Z,2.40
2017-07-21T14:15:22.463Z,2.00
2017-07-21T14:17:51.258Z,1.93
2017-07-21T14:20:19.327Z,2.40
2017-07-21T14:22:47.398Z,2.53
2017-07-21T14:25:15.467Z,2.10
2017-07-21T14:27:43.882Z,2.13
2017-07-21T14:30:11.895Z,2.20
2017-07-21T14:32:39.987Z,2.00
2017-07-21T14:35:08.069Z,2.30
2017-07-21T14:37:36.135Z,1.90
2017-07-21T14:40:04.415Z,2.30
2017-07-21T14:42:32.512Z,1.80
2017-07-21T14:45:00.581Z,2.13
2017-07-21T14:47:28.659Z,2.17
2017-07-21T14:49:56.727Z,1.87
2017-07-21T14:52:24.802Z,2.07
2017-07-21T14:54:52.879Z,2.63
2017-07-21T14:57:20.939Z,1.97
2017-07-21T14:59:49.010Z,1.80
2017-07-21T15:02:17.094Z,1.80
2017-07-21T15:04:45.190Z,1.80
2017-07-21T15:07:13.892Z,2.50
2017-07-21T15:09:42.714Z,1.97
2017-07-21T15:12:10.802Z,2.17
2017-07-21T15:14:38.875Z,2.30
2017-07-21T15:17:06.947Z,2.20
2017-07-21T15:19:35.026Z,2.13
2017-07-21T15:22:03.075Z,2.00
2017-07-21T15:24:31.149Z,1.93
2017-07-21T15:26:59.227Z,1.63
2017-07-21T15:29:27.289Z,1.90
2017-07-21T15:31:55.395Z,2.50
2017-07-21T15:34:23.494Z,2.13
2017-07-21T15:36:51.562Z,1.80
2017-07-21T15:39:20.438Z,1.93
2017-07-21T15:41:48.502Z,1.90
2017-07-21T15:44:16.578Z,1.80
2017-07-21T15:46:44.698Z,2.00
2017-07-21T15:49:12.725Z,1.80
2017-07-21T15:51:41.575Z,2.00
2017-07-21T15:54:09.662Z,1.70
2017-07-21T15:56:37.746Z,1.90
2017-07-21T15:59:05.823Z,1.80
2017-07-21T16:01:33.893Z,1.80
2017-07-21T16:04:01.951Z,2.20
2017-07-21T16:06:30.012Z,1.80
2017-07-21T16:08:58.106Z,2.00
2017-07-21T16:11:26.163Z,2.50
2017-07-21T16:13:54.254Z,1.83
2017-07-21T16:16:22.360Z,2.00
2017-07-21T16:18:51.194Z,2.10
2017-07-21T16:21:19.866Z,2.07
2017-07-21T16:23:47.918Z,2.40
2017-07-21T16:26:16.735Z,2.20
2017-07-21T16:28:44.816Z,2.07
2017-07-21T16:31:12.908Z,1.90
2017-07-21T16:33:40.968Z,2.10
2017-07-21T16:36:09.034Z,1.80
2017-07-21T16:38:37.125Z,1.80
2017-07-21T16:41:05.202Z,2.00
2017-07-21T16:43:33.252Z,2.03
2017-07-21T16:46:01.313Z,2.40
2017-07-21T16:48:29.379Z,2.50
2017-07-21T16:50:57.460Z,1.80
2017-07-21T16:53:25.522Z,2.20
2017-07-21T16:55:53.585Z,2.03
2017-07-21T16:58:22.254Z,2.43
2017-07-21T17:00:50.283Z,2.50
2017-07-21T17:03:19.123Z,2.43
2017-07-21T17:05:47.214Z,2.20
2017-07-21T17:08:15.281Z,2.00
2017-07-21T17:10:43.350Z,2.30
2017-07-21T17:13:11.449Z,2.17
2017-07-21T17:15:40.743Z,2.17
2017-07-21T17:18:09.579Z,2.10
2017-07-21T17:20:37.673Z,2.50
2017-07-21T17:23:05.745Z,1.90
2017-07-21T17:25:33.826Z,2.13
2017-07-21T17:28:01.949Z,2.70
2017-07-21T17:30:30.022Z,2.20
2017-07-21T17:32:58.067Z,2.40
2017-07-21T17:35:26.941Z,2.67
2017-07-21T17:37:55.018Z,2.40
2017-07-21T17:40:23.108Z,2.50
2017-07-21T17:42:51.958Z,2.50
2017-07-21T17:45:20.306Z,2.23
2017-07-21T17:47:48.374Z,2.63
2017-07-21T17:50:16.461Z,2.77
2017-07-21T17:52:44.565Z,2.67
2017-07-21T17:55:12.630Z,3.27
2017-07-21T17:57:40.723Z,2.70
2017-07-21T18:00:08.803Z,2.70
2017-07-21T18:02:37.639Z,3.20
2017-07-21T18:05:05.752Z,2.60
2017-07-21T18:07:33.828Z,2.83
2017-07-21T18:10:01.892Z,2.70
2017-07-21T18:12:29.960Z,3.80
2017-07-21T18:14:58.029Z,2.90
2017-07-21T18:17:26.088Z,3.33
2017-07-21T18:19:54.190Z,3.20
2017-07-21T18:22:23.015Z,3.17
2017-07-21T18:24:51.106Z,2.70
2017-07-21T18:27:19.180Z,2.93
2017-07-21T18:29:47.320Z,2.97
2017-07-21T18:32:16.138Z,3.10
2017-07-21T18:34:44.214Z,2.87
2017-07-21T18:37:12.336Z,2.87
2017-07-21T18:39:41.167Z,2.70
2017-07-21T18:42:09.232Z,2.87
2017-07-21T18:44:37.329Z,3.37
2017-07-21T18:47:05.386Z,3.27
2017-07-21T18:49:33.793Z,3.33
2017-07-21T18:52:01.849Z,3.30
2017-07-21T18:54:29.912Z,2.80
2017-07-21T18:56:58.008Z,3.20
2017-07-21T18:59:26.064Z,7.80
2017-07-21T19:01:54.899Z,10.93
2017-07-21T19:04:22.995Z,4.27
2017-07-21T19:06:51.051Z,3.00
2017-07-21T19:09:19.110Z,3.53
2017-07-21T19:11:47.189Z,3.60
2017-07-21T19:14:15.267Z,3.53
2017-07-21T19:16:43.327Z,3.37
2017-07-21T19:19:11.442Z,2.70
2017-07-21T19:21:39.487Z,2.87
2017-07-21T19:24:07.543Z,2.90
2017-07-21T19:26:35.618Z,3.10
2017-07-21T19:29:03.715Z,3.13
2017-07-21T19:31:31.778Z,3.50
2017-07-21T19:33:59.866Z,2.80
2017-07-21T19:36:28.694Z,3.10
2017-07-21T19:38:56.770Z,3.83
2017-07-21T19:41:24.848Z,4.20
2017-07-21T19:43:52.914Z,3.13
2017-07-21T19:46:21.074Z,3.27
2017-07-21T19:48:49.871Z,3.30
2017-07-21T19:51:17.955Z,3.40
2017-07-21T19:53:46.031Z,3.43
2017-07-21T19:56:14.157Z,3.97
2017-07-21T19:58:42.344Z,3.43
2017-07-21T20:01:11.164Z,3.20
2017-07-21T20:03:39.232Z,3.57
2017-07-21T20:06:07.322Z,3.80
2017-07-21T20:08:35.390Z,4.03
2017-07-21T20:11:03.663Z,3.97
2017-07-21T20:13:31.745Z,3.80
2017-07-21T20:15:59.802Z,3.87
2017-07-21T20:18:28.167Z,3.57
2017-07-21T20:20:56.981Z,4.00
2017-07-21T20:23:25.038Z,3.40
2017-07-21T20:25:53.127Z,4.53
2017-07-21T20:28:21.202Z,3.37
2017-07-21T20:30:49.295Z,4.10
2017-07-21T20:33:17.367Z,5.10
2017-07-21T20:35:45.434Z,4.33
2017-07-21T20:38:13.507Z,4.23
2017-07-21T20:40:41.586Z,3.70
2017-07-21T20:43:09.646Z,3.87
2017-07-21T20:45:37.727Z,3.87
2017-07-21T20:48:05.791Z,3.60
2017-07-21T20:50:33.867Z,3.77
2017-07-21T20:53:01.953Z,4.13
2017-07-21T20:55:31.446Z,3.70
2017-07-21T20:58:00.297Z,3.70
2017-07-21T21:00:28.365Z,4.43
2017-07-21T21:02:56.424Z,3.40
2017-07-21T21:05:24.520Z,4.27
2017-07-21T21:07:52.595Z,4.43
2017-07-21T21:10:20.654Z,4.60
2017-07-21T21:12:48.730Z,4.43
2017-07-21T21:15:16.800Z,4.70
2017-07-21T21:17:44.866Z,4.53
2017-07-21T21:20:12.942Z,4.17
2017-07-21T21:22:41.003Z,4.10
2017-07-21T21:25:09.092Z,4.10
2017-07-21T21:27:37.152Z,4.07
2017-07-21T21:30:05.244Z,4.43
2017-07-21T21:32:33.299Z,4.80
2017-07-21T21:35:01.706Z,4.93
2017-07-21T21:37:29.762Z,4.10
2017-07-21T21:39:57.817Z,4.20
2017-07-21T21:42:25.879Z,4.73
2017-07-21T21:44:53.955Z,5.30
2017-07-21T21:47:22.019Z,6.23
2017-07-21T21:49:50.127Z,4.73
2017-07-21T21:52:18.175Z,5.50
2017-07-21T21:54:46.227Z,5.10
2017-07-21T21:57:14.318Z,5.27
2017-07-21T21:59:42.408Z,4.73
2017-07-21T22:02:11.227Z,5.47
2017-07-21T22:04:39.299Z,5.20
2017-07-21T22:07:07.375Z,5.23
2017-07-21T22:09:35.582Z,5.73
2017-07-21T22:12:03.650Z,5.70
2017-07-21T22:14:31.723Z,5.33
2017-07-21T22:16:59.782Z,5.80
2017-07-21T22:19:27.855Z,5.40
2017-07-21T22:21:55.946Z,5.23
2017-07-21T22:24:23.995Z,5.60
2017-07-21T22:26:52.044Z,5.70
2017-07-21T22:29:20.091Z,5.50
2017-07-21T22:31:48.936Z,5.00
2017-07-21T22:34:16.976Z,5.67
2017-07-21T22:36:45.039Z,6.07
2017-07-21T22:39:13.123Z,5.97
2017-07-21T22:41:41.199Z,6.70
2017-07-21T22:44:09.278Z,6.40
2017-07-21T22:46:37.331Z,5.50
2017-07-21T22:49:05.394Z,6.17
2017-07-21T22:51:33.470Z,6.90
2017-07-21T22:54:01.535Z,6.17
2017-07-21T22:56:29.630Z,7.03
2017-07-21T22:58:57.690Z,7.17
2017-07-21T23:01:25.770Z,6.53
2017-07-21T23:03:53.821Z,7.47
2017-07-21T23:06:21.900Z,6.53
2017-07-21T23:08:50.008Z,7.50
2017-07-21T23:11:18.049Z,7.20
2017-07-21T23:13:46.170Z,7.53
2017-07-21T23:16:14.241Z,6.30
2017-07-21T23:18:42.315Z,7.03
2017-07-21T23:21:10.378Z,7.77
2017-07-21T23:23:38.444Z,6.60
2017-07-21T23:26:06.534Z,7.47
2017-07-21T23:28:34.576Z,7.30
2017-07-21T23:31:02.716Z,7.57
2017-07-21T23:33:30.764Z,8.07
2017-07-21T23:35:59.603Z,7.50
2017-07-21T23:38:27.889Z,8.37
2017-07-21T23:40:55.935Z,7.97
2017-07-21T23:43:24.025Z,7.67
2017-07-21T23:45:52.083Z,8.03
2017-07-21T23:48:20.135Z,8.20
2017-07-21T23:50:48.207Z,8.10
2017-07-21T23:53:16.255Z,8.23
2017-07-21T23:55:45.107Z,8.53
2017-07-21T23:58:13.164Z,8.60
